Elwyn Terrace, Pennsylvania
Current Conditions -  °F | °C
As of 4:53 PM on Saturday 20 Dec 2014 (Local Time) from KLNS Reporting Station
Overcast Overcast  
Wind Chill:   Ceiling: 3100
Heat Index:   Visibility: 8mi
Dew Point: -7°   Wind: 0mph
Humidity: 59%   Direction: NA
Pressure: 30.26"   Gusts: NA
Location:  40.1777°N, 76.4291°W
Report Text: KLNS 202153Z 00000KT 8SM OVC031 01/M07 A3026 RMK AO2 SLP251 T00061067
Loading
Personal Weather Stations






























Interactive Weather Map New forecast layout! Learn more

10-Day Weather Forecast

Advertisements
Track Severe Weather on mobile